sensor_id;sensor_type;location;lat;lon;timestamp;temperature;humidity
32394;DHT22;18853;45.426;9.206;2022-07-29T00:00:43;31.40;46.50
32394;DHT22;18853;45.426;9.206;2022-07-29T00:03:12;31.50;46.60
32394;DHT22;18853;45.426;9.206;2022-07-29T00:05:41;31.50;46.40
32394;DHT22;18853;45.426;9.206;2022-07-29T00:08:08;31.50;46.10
32394;DHT22;18853;45.426;9.206;2022-07-29T00:10:34;31.50;46.10
32394;DHT22;18853;45.426;9.206;2022-07-29T00:13:00;31.60;46.10
32394;DHT22;18853;45.426;9.206;2022-07-29T00:15:26;31.60;45.90
32394;DHT22;18853;45.426;9.206;2022-07-29T00:17:52;31.60;45.80
32394;DHT22;18853;45.426;9.206;2022-07-29T00:20:17;31.60;45.50
32394;DHT22;18853;45.426;9.206;2022-07-29T00:22:43;31.60;45.70
32394;DHT22;18853;45.426;9.206;2022-07-29T00:25:09;31.50;45.50
32394;DHT22;18853;45.426;9.206;2022-07-29T00:27:36;31.50;45.20
32394;DHT22;18853;45.426;9.206;2022-07-29T00:30:03;31.40;45.20
32394;DHT22;18853;45.426;9.206;2022-07-29T00:32:29;31.30;45.40
32394;DHT22;18853;45.426;9.206;2022-07-29T00:34:54;31.20;45.70
32394;DHT22;18853;45.426;9.206;2022-07-29T00:37:58;31.10;46.00
32394;DHT22;18853;45.426;9.206;2022-07-29T00:40:24;31.00;46.40
32394;DHT22;18853;45.426;9.206;2022-07-29T00:42:51;31.00;46.60
32394;DHT22;18853;45.426;9.206;2022-07-29T00:45:18;31.00;46.70
32394;DHT22;18853;45.426;9.206;2022-07-29T00:47:44;30.90;46.80
32394;DHT22;18853;45.426;9.206;2022-07-29T00:50:11;31.00;46.70
32394;DHT22;18853;45.426;9.206;2022-07-29T00:52:38;31.10;46.80
32394;DHT22;18853;45.426;9.206;2022-07-29T00:55:06;31.10;46.70
32394;DHT22;18853;45.426;9.206;2022-07-29T00:57:33;31.20;46.70
32394;DHT22;18853;45.426;9.206;2022-07-29T00:59:58;31.20;46.90
32394;DHT22;18853;45.426;9.206;2022-07-29T01:02:24;31.20;47.10
32394;DHT22;18853;45.426;9.206;2022-07-29T01:04:50;31.20;47.00
32394;DHT22;18853;45.426;9.206;2022-07-29T01:07:17;31.20;47.00
32394;DHT22;18853;45.426;9.206;2022-07-29T01:09:44;31.20;47.00
32394;DHT22;18853;45.426;9.206;2022-07-29T01:12:10;31.20;46.90
32394;DHT22;18853;45.426;9.206;2022-07-29T01:14:38;31.30;46.90
32394;DHT22;18853;45.426;9.206;2022-07-29T01:17:13;31.30;46.90
32394;DHT22;18853;45.426;9.206;2022-07-29T01:25:17;31.20;47.00
32394;DHT22;18853;45.426;9.206;2022-07-29T01:28:00;31.10;46.10
32394;DHT22;18853;45.426;9.206;2022-07-29T01:30:27;31.00;45.60
32394;DHT22;18853;45.426;9.206;2022-07-29T01:32:59;31.00;45.20
32394;DHT22;18853;45.426;9.206;2022-07-29T01:35:39;30.90;45.40
32394;DHT22;18853;45.426;9.206;2022-07-29T01:38:12;30.90;45.90
32394;DHT22;18853;45.426;9.206;2022-07-29T01:40:51;30.90;45.80
32394;DHT22;18853;45.426;9.206;2022-07-29T01:43:21;30.80;46.10
32394;DHT22;18853;45.426;9.206;2022-07-29T01:45:58;30.60;46.50
32394;DHT22;18853;45.426;9.206;2022-07-29T01:48:39;30.50;46.20
32394;DHT22;18853;45.426;9.206;2022-07-29T01:53:46;30.60;46.50
32394;DHT22;18853;45.426;9.206;2022-07-29T01:56:13;30.70;46.60
32394;DHT22;18853;45.426;9.206;2022-07-29T01:58:41;30.70;46.40
32394;DHT22;18853;45.426;9.206;2022-07-29T02:01:09;30.80;46.50
32394;DHT22;18853;45.426;9.206;2022-07-29T02:03:38;30.90;46.80
32394;DHT22;18853;45.426;9.206;2022-07-29T02:06:06;30.90;46.80
32394;DHT22;18853;45.426;9.206;2022-07-29T02:08:33;30.80;46.10
32394;DHT22;18853;45.426;9.206;2022-07-29T02:11:00;30.70;46.40
32394;DHT22;18853;45.426;9.206;2022-07-29T02:13:29;30.60;46.80
32394;DHT22;18853;45.426;9.206;2022-07-29T02:15:57;30.50;47.00
32394;DHT22;18853;45.426;9.206;2022-07-29T02:18:24;30.40;47.20
32394;DHT22;18853;45.426;9.206;2022-07-29T02:20:54;30.40;47.60
32394;DHT22;18853;45.426;9.206;2022-07-29T02:23:22;30.40;47.80
32394;DHT22;18853;45.426;9.206;2022-07-29T02:25:54;30.30;47.90
32394;DHT22;18853;45.426;9.206;2022-07-29T02:28:22;30.30;48.10
32394;DHT22;18853;45.426;9.206;2022-07-29T02:30:51;30.20;48.20
32394;DHT22;18853;45.426;9.206;2022-07-29T02:33:18;30.20;48.50
32394;DHT22;18853;45.426;9.206;2022-07-29T02:35:46;30.10;48.50
32394;DHT22;18853;45.426;9.206;2022-07-29T02:38:14;30.10;48.30
32394;DHT22;18853;45.426;9.206;2022-07-29T02:41:01;30.00;48.20
32394;DHT22;18853;45.426;9.206;2022-07-29T02:43:28;29.90;48.80
32394;DHT22;18853;45.426;9.206;2022-07-29T02:45:56;29.90;48.30
32394;DHT22;18853;45.426;9.206;2022-07-29T02:48:31;29.90;48.20
32394;DHT22;18853;45.426;9.206;2022-07-29T02:51:08;29.90;48.00
32394;DHT22;18853;45.426;9.206;2022-07-29T02:53:38;29.90;48.30
32394;DHT22;18853;45.426;9.206;2022-07-29T02:56:14;29.80;48.30
32394;DHT22;18853;45.426;9.206;2022-07-29T02:58:45;29.80;48.30
32394;DHT22;18853;45.426;9.206;2022-07-29T03:01:15;29.60;48.40
32394;DHT22;18853;45.426;9.206;2022-07-29T03:03:44;29.60;48.60
32394;DHT22;18853;45.426;9.206;2022-07-29T03:06:12;29.60;48.60
32394;DHT22;18853;45.426;9.206;2022-07-29T03:08:39;29.60;48.40
32394;DHT22;18853;45.426;9.206;2022-07-29T03:11:07;29.60;48.40
32394;DHT22;18853;45.426;9.206;2022-07-29T03:13:35;29.60;48.30
32394;DHT22;18853;45.426;9.206;2022-07-29T03:16:01;29.50;48.20
32394;DHT22;18853;45.426;9.206;2022-07-29T03:18:28;29.50;48.30
32394;DHT22;18853;45.426;9.206;2022-07-29T03:20:54;29.40;48.30
32394;DHT22;18853;45.426;9.206;2022-07-29T03:23:21;29.40;48.40
32394;DHT22;18853;45.426;9.206;2022-07-29T03:25:49;29.40;48.50
32394;DHT22;18853;45.426;9.206;2022-07-29T03:28:14;29.30;48.40
32394;DHT22;18853;45.426;9.206;2022-07-29T03:30:40;29.30;48.40
32394;DHT22;18853;45.426;9.206;2022-07-29T03:33:06;29.30;48.40
32394;DHT22;18853;45.426;9.206;2022-07-29T03:35:31;29.30;48.30
32394;DHT22;18853;45.426;9.206;2022-07-29T03:37:58;29.30;48.20
32394;DHT22;18853;45.426;9.206;2022-07-29T03:40:38;29.30;48.30
32394;DHT22;18853;45.426;9.206;2022-07-29T03:43:05;29.30;48.20
32394;DHT22;18853;45.426;9.206;2022-07-29T03:45:33;29.30;48.40
32394;DHT22;18853;45.426;9.206;2022-07-29T03:48:08;29.30;48.30
32394;DHT22;18853;45.426;9.206;2022-07-29T03:50:35;29.30;48.30
32394;DHT22;18853;45.426;9.206;2022-07-29T03:53:02;29.30;48.40
32394;DHT22;18853;45.426;9.206;2022-07-29T03:55:30;29.40;48.30
32394;DHT22;18853;45.426;9.206;2022-07-29T03:57:57;29.60;48.10
32394;DHT22;18853;45.426;9.206;2022-07-29T04:00:24;29.70;48.00
32394;DHT22;18853;45.426;9.206;2022-07-29T04:02:50;29.70;47.60
32394;DHT22;18853;45.426;9.206;2022-07-29T04:05:16;29.70;47.50
32394;DHT22;18853;45.426;9.206;2022-07-29T04:07:47;29.50;47.40
32394;DHT22;18853;45.426;9.206;2022-07-29T04:10:13;29.50;47.40
32394;DHT22;18853;45.426;9.206;2022-07-29T04:12:40;29.40;47.70
32394;DHT22;18853;45.426;9.206;2022-07-29T04:15:06;29.40;48.00
32394;DHT22;18853;45.426;9.206;2022-07-29T04:17:32;29.40;47.80
32394;DHT22;18853;45.426;9.206;2022-07-29T04:19:58;29.50;48.00
32394;DHT22;18853;45.426;9.206;2022-07-29T04:22:24;29.50;47.80
32394;DHT22;18853;45.426;9.206;2022-07-29T04:24:49;29.40;47.80
32394;DHT22;18853;45.426;9.206;2022-07-29T04:27:15;29.40;47.80
32394;DHT22;18853;45.426;9.206;2022-07-29T04:29:44;29.50;47.70
32394;DHT22;18853;45.426;9.206;2022-07-29T04:32:09;29.50;47.70
32394;DHT22;18853;45.426;9.206;2022-07-29T04:34:35;29.50;47.80
32394;DHT22;18853;45.426;9.206;2022-07-29T04:37:00;29.60;47.80
32394;DHT22;18853;45.426;9.206;2022-07-29T04:39:26;29.70;48.00
32394;DHT22;18853;45.426;9.206;2022-07-29T04:41:52;29.80;47.80
32394;DHT22;18853;45.426;9.206;2022-07-29T04:44:17;29.90;47.60
32394;DHT22;18853;45.426;9.206;2022-07-29T04:46:43;29.90;47.60
32394;DHT22;18853;45.426;9.206;2022-07-29T04:49:09;29.90;47.30
32394;DHT22;18853;45.426;9.206;2022-07-29T04:51:34;29.80;47.40
32394;DHT22;18853;45.426;9.206;2022-07-29T04:54:00;29.70;47.30
32394;DHT22;18853;45.426;9.206;2022-07-29T04:56:26;29.70;47.30
32394;DHT22;18853;45.426;9.206;2022-07-29T04:58:52;29.60;47.30
32394;DHT22;18853;45.426;9.206;2022-07-29T05:01:18;29.60;47.20
32394;DHT22;18853;45.426;9.206;2022-07-29T05:03:43;29.50;47.20
32394;DHT22;18853;45.426;9.206;2022-07-29T05:06:10;29.40;47.30
32394;DHT22;18853;45.426;9.206;2022-07-29T05:08:36;29.40;47.50
32394;DHT22;18853;45.426;9.206;2022-07-29T05:11:02;29.40;47.30
32394;DHT22;18853;45.426;9.206;2022-07-29T05:13:27;29.40;47.60
32394;DHT22;18853;45.426;9.206;2022-07-29T05:15:53;29.40;48.00
32394;DHT22;18853;45.426;9.206;2022-07-29T05:18:19;29.40;48.00
32394;DHT22;18853;45.426;9.206;2022-07-29T05:20:44;29.30;48.00
32394;DHT22;18853;45.426;9.206;2022-07-29T05:23:10;29.30;48.00
32394;DHT22;18853;45.426;9.206;2022-07-29T05:25:38;29.30;47.90
32394;DHT22;18853;45.426;9.206;2022-07-29T05:28:04;29.30;47.90
32394;DHT22;18853;45.426;9.206;2022-07-29T05:30:29;29.40;48.00
32394;DHT22;18853;45.426;9.206;2022-07-29T05:32:55;29.50;47.70
32394;DHT22;18853;45.426;9.206;2022-07-29T05:35:21;29.70;47.70
32394;DHT22;18853;45.426;9.206;2022-07-29T05:37:46;29.70;47.70
32394;DHT22;18853;45.426;9.206;2022-07-29T05:40:12;29.70;47.50
32394;DHT22;18853;45.426;9.206;2022-07-29T05:42:37;29.70;47.30
32394;DHT22;18853;45.426;9.206;2022-07-29T05:45:03;29.80;47.50
32394;DHT22;18853;45.426;9.206;2022-07-29T05:47:30;29.70;48.00
32394;DHT22;18853;45.426;9.206;2022-07-29T05:49:56;29.60;48.50
32394;DHT22;18853;45.426;9.206;2022-07-29T05:52:22;29.50;48.50
32394;DHT22;18853;45.426;9.206;2022-07-29T05:54:48;29.50;48.30
32394;DHT22;18853;45.426;9.206;2022-07-29T05:57:17;29.50;48.20
32394;DHT22;18853;45.426;9.206;2022-07-29T05:59:47;29.40;48.40
32394;DHT22;18853;45.426;9.206;2022-07-29T06:02:13;29.40;48.00
32394;DHT22;18853;45.426;9.206;2022-07-29T06:04:39;29.40;48.70
32394;DHT22;18853;45.426;9.206;2022-07-29T06:07:04;29.40;48.50
32394;DHT22;18853;45.426;9.206;2022-07-29T06:09:30;29.50;48.50
32394;DHT22;18853;45.426;9.206;2022-07-29T06:11:56;29.60;49.50
32394;DHT22;18853;45.426;9.206;2022-07-29T06:14:23;29.70;48.80
32394;DHT22;18853;45.426;9.206;2022-07-29T06:16:48;29.70;48.70
32394;DHT22;18853;45.426;9.206;2022-07-29T06:19:14;29.80;48.70
32394;DHT22;18853;45.426;9.206;2022-07-29T06:21:43;29.90;48.50
32394;DHT22;18853;45.426;9.206;2022-07-29T06:24:10;30.00;49.20
32394;DHT22;18853;45.426;9.206;2022-07-29T06:26:37;30.00;48.50
32394;DHT22;18853;45.426;9.206;2022-07-29T06:29:03;30.00;48.20
32394;DHT22;18853;45.426;9.206;2022-07-29T06:31:29;30.10;48.10
32394;DHT22;18853;45.426;9.206;2022-07-29T06:33:54;30.10;47.90
32394;DHT22;18853;45.426;9.206;2022-07-29T06:36:20;30.20;47.80
32394;DHT22;18853;45.426;9.206;2022-07-29T06:38:45;30.20;46.80
32394;DHT22;18853;45.426;9.206;2022-07-29T06:41:11;30.20;46.70
32394;DHT22;18853;45.426;9.206;2022-07-29T06:43:41;30.20;47.00
32394;DHT22;18853;45.426;9.206;2022-07-29T06:46:13;30.30;46.80
32394;DHT22;18853;45.426;9.206;2022-07-29T06:48:39;30.30;46.40
32394;DHT22;18853;45.426;9.206;2022-07-29T06:51:06;30.20;46.50
32394;DHT22;18853;45.426;9.206;2022-07-29T06:53:33;30.20;46.60
32394;DHT22;18853;45.426;9.206;2022-07-29T06:56:00;30.20;46.60
32394;DHT22;18853;45.426;9.206;2022-07-29T06:58:27;30.20;46.30
32394;DHT22;18853;45.426;9.206;2022-07-29T07:00:53;30.20;46.40
32394;DHT22;18853;45.426;9.206;2022-07-29T07:03:19;30.30;46.30
32394;DHT22;18853;45.426;9.206;2022-07-29T07:05:45;30.20;45.90
32394;DHT22;18853;45.426;9.206;2022-07-29T07:08:12;30.20;46.20
32394;DHT22;18853;45.426;9.206;2022-07-29T07:10:38;30.10;46.30
32394;DHT22;18853;45.426;9.206;2022-07-29T07:13:05;30.10;46.40
32394;DHT22;18853;45.426;9.206;2022-07-29T07:15:31;30.10;46.30
32394;DHT22;18853;45.426;9.206;2022-07-29T07:17:57;30.00;46.40
32394;DHT22;18853;45.426;9.206;2022-07-29T07:20:23;30.00;46.60
32394;DHT22;18853;45.426;9.206;2022-07-29T07:22:49;30.00;46.70
32394;DHT22;18853;45.426;9.206;2022-07-29T07:25:14;30.00;46.60
32394;DHT22;18853;45.426;9.206;2022-07-29T07:27:40;30.10;47.00
32394;DHT22;18853;45.426;9.206;2022-07-29T07:30:07;30.10;47.40
32394;DHT22;18853;45.426;9.206;2022-07-29T07:32:34;30.20;46.60
32394;DHT22;18853;45.426;9.206;2022-07-29T07:35:00;30.30;46.80
32394;DHT22;18853;45.426;9.206;2022-07-29T07:37:25;30.30;46.90
32394;DHT22;18853;45.426;9.206;2022-07-29T07:39:52;30.30;46.60
32394;DHT22;18853;45.426;9.206;2022-07-29T07:42:19;30.30;47.40
32394;DHT22;18853;45.426;9.206;2022-07-29T07:44:44;30.30;47.20
32394;DHT22;18853;45.426;9.206;2022-07-29T07:47:14;30.20;47.80
32394;DHT22;18853;45.426;9.206;2022-07-29T07:49:40;30.20;47.50
32394;DHT22;18853;45.426;9.206;2022-07-29T07:52:06;30.30;47.60
32394;DHT22;18853;45.426;9.206;2022-07-29T07:54:32;30.30;47.60
32394;DHT22;18853;45.426;9.206;2022-07-29T07:56:57;30.40;47.40
32394;DHT22;18853;45.426;9.206;2022-07-29T07:59:23;30.50;46.80
32394;DHT22;18853;45.426;9.206;2022-07-29T08:01:49;30.50;46.90
32394;DHT22;18853;45.426;9.206;2022-07-29T08:04:15;30.60;47.00
32394;DHT22;18853;45.426;9.206;2022-07-29T08:06:41;30.50;46.70
32394;DHT22;18853;45.426;9.206;2022-07-29T08:09:07;30.50;47.00
32394;DHT22;18853;45.426;9.206;2022-07-29T08:11:32;30.40;47.10
32394;DHT22;18853;45.426;9.206;2022-07-29T08:13:58;30.30;47.10
32394;DHT22;18853;45.426;9.206;2022-07-29T08:16:26;30.20;46.90
32394;DHT22;18853;45.426;9.206;2022-07-29T08:18:52;30.20;47.40
32394;DHT22;18853;45.426;9.206;2022-07-29T08:21:23;30.20;46.30
32394;DHT22;18853;45.426;9.206;2022-07-29T08:23:48;30.20;46.30
32394;DHT22;18853;45.426;9.206;2022-07-29T08:26:16;30.30;46.30
32394;DHT22;18853;45.426;9.206;2022-07-29T08:28:43;30.20;45.80
32394;DHT22;18853;45.426;9.206;2022-07-29T08:31:15;30.20;45.60
32394;DHT22;18853;45.426;9.206;2022-07-29T08:33:41;30.20;44.90
32394;DHT22;18853;45.426;9.206;2022-07-29T08:36:08;30.30;45.00
32394;DHT22;18853;45.426;9.206;2022-07-29T08:38:34;30.20;45.20
32394;DHT22;18853;45.426;9.206;2022-07-29T08:41:00;30.30;45.40
32394;DHT22;18853;45.426;9.206;2022-07-29T08:43:29;30.30;46.00
32394;DHT22;18853;45.426;9.206;2022-07-29T08:45:55;30.40;45.10
32394;DHT22;18853;45.426;9.206;2022-07-29T08:48:22;30.40;45.00
32394;DHT22;18853;45.426;9.206;2022-07-29T08:50:54;30.60;45.60
32394;DHT22;18853;45.426;9.206;2022-07-29T08:53:21;30.60;44.70
32394;DHT22;18853;45.426;9.206;2022-07-29T08:55:49;30.60;44.10
32394;DHT22;18853;45.426;9.206;2022-07-29T08:58:16;30.70;44.50
32394;DHT22;18853;45.426;9.206;2022-07-29T09:00:50;30.70;44.50
32394;DHT22;18853;45.426;9.206;2022-07-29T09:03:22;30.80;44.30
32394;DHT22;18853;45.426;9.206;2022-07-29T09:05:48;30.80;44.10
32394;DHT22;18853;45.426;9.206;2022-07-29T09:08:15;30.80;43.90
32394;DHT22;18853;45.426;9.206;2022-07-29T09:10:42;30.80;43.30
32394;DHT22;18853;45.426;9.206;2022-07-29T09:13:08;30.90;43.70
32394;DHT22;18853;45.426;9.206;2022-07-29T09:15:33;30.90;43.70
32394;DHT22;18853;45.426;9.206;2022-07-29T09:17:59;30.90;43.50
32394;DHT22;18853;45.426;9.206;2022-07-29T09:20:26;30.90;43.40
32394;DHT22;18853;45.426;9.206;2022-07-29T09:23:12;30.90;42.90
32394;DHT22;18853;45.426;9.206;2022-07-29T09:25:40;30.80;43.60
32394;DHT22;18853;45.426;9.206;2022-07-29T09:28:10;30.90;43.50
32394;DHT22;18853;45.426;9.206;2022-07-29T09:30:53;31.00;43.50
32394;DHT22;18853;45.426;9.206;2022-07-29T09:33:20;31.20;43.30
32394;DHT22;18853;45.426;9.206;2022-07-29T09:35:57;31.10;43.50
32394;DHT22;18853;45.426;9.206;2022-07-29T09:38:23;31.20;43.50
32394;DHT22;18853;45.426;9.206;2022-07-29T09:41:00;31.20;43.70
32394;DHT22;18853;45.426;9.206;2022-07-29T09:43:26;31.20;43.10
32394;DHT22;18853;45.426;9.206;2022-07-29T09:45:52;31.10;42.60
32394;DHT22;18853;45.426;9.206;2022-07-29T09:48:20;31.10;43.00
32394;DHT22;18853;45.426;9.206;2022-07-29T09:50:47;31.20;42.80
32394;DHT22;18853;45.426;9.206;2022-07-29T09:55:56;31.40;42.50
32394;DHT22;18853;45.426;9.206;2022-07-29T09:58:22;31.30;42.50
32394;DHT22;18853;45.426;9.206;2022-07-29T10:00:49;31.40;42.20
32394;DHT22;18853;45.426;9.206;2022-07-29T10:03:16;31.40;42.10
32394;DHT22;18853;45.426;9.206;2022-07-29T10:05:42;31.40;42.40
32394;DHT22;18853;45.426;9.206;2022-07-29T10:08:09;31.50;42.50
32394;DHT22;18853;45.426;9.206;2022-07-29T10:10:39;31.50;42.10
32394;DHT22;18853;45.426;9.206;2022-07-29T10:13:09;31.40;42.00
32394;DHT22;18853;45.426;9.206;2022-07-29T10:15:37;31.40;42.40
32394;DHT22;18853;45.426;9.206;2022-07-29T10:18:09;31.40;42.50
32394;DHT22;18853;45.426;9.206;2022-07-29T10:20:36;31.40;42.30
32394;DHT22;18853;45.426;9.206;2022-07-29T10:23:02;31.40;42.00
32394;DHT22;18853;45.426;9.206;2022-07-29T10:25:28;31.50;41.90
32394;DHT22;18853;45.426;9.206;2022-07-29T10:27:54;31.50;41.80
32394;DHT22;18853;45.426;9.206;2022-07-29T10:30:21;31.50;42.00
32394;DHT22;18853;45.426;9.206;2022-07-29T10:44:21;31.60;42.40
32394;DHT22;18853;45.426;9.206;2022-07-29T10:46:48;31.70;42.40
32394;DHT22;18853;45.426;9.206;2022-07-29T10:49:25;31.60;42.60
32394;DHT22;18853;45.426;9.206;2022-07-29T10:52:05;31.70;42.50
32394;DHT22;18853;45.426;9.206;2022-07-29T11:05:05;31.70;43.40
32394;DHT22;18853;45.426;9.206;2022-07-29T11:07:32;31.60;43.60
32394;DHT22;18853;45.426;9.206;2022-07-29T11:15:17;31.70;43.70
32394;DHT22;18853;45.426;9.206;2022-07-29T11:20:50;31.90;43.20
32394;DHT22;18853;45.426;9.206;2022-07-29T11:31:42;31.90;43.80
32394;DHT22;18853;45.426;9.206;2022-07-29T11:34:25;32.10;43.10
32394;DHT22;18853;45.426;9.206;2022-07-29T11:47:23;32.30;41.90
32394;DHT22;18853;45.426;9.206;2022-07-29T11:49:53;32.20;42.00
32394;DHT22;18853;45.426;9.206;2022-07-29T11:52:20;32.20;41.90
32394;DHT22;18853;45.426;9.206;2022-07-29T11:54:48;32.30;42.00
32394;DHT22;18853;45.426;9.206;2022-07-29T11:57:16;32.30;42.00
32394;DHT22;18853;45.426;9.206;2022-07-29T11:59:44;32.30;42.00
32394;DHT22;18853;45.426;9.206;2022-07-29T12:02:11;32.30;41.80
32394;DHT22;18853;45.426;9.206;2022-07-29T12:04:53;32.30;41.90
32394;DHT22;18853;45.426;9.206;2022-07-29T12:07:29;32.50;41.60
32394;DHT22;18853;45.426;9.206;2022-07-29T12:09:56;32.60;41.70
32394;DHT22;18853;45.426;9.206;2022-07-29T12:12:22;32.70;41.70
32394;DHT22;18853;45.426;9.206;2022-07-29T12:14:48;32.70;41.40
32394;DHT22;18853;45.426;9.206;2022-07-29T12:19:57;32.80;42.10
32394;DHT22;18853;45.426;9.206;2022-07-29T12:22:30;32.80;41.80
32394;DHT22;18853;45.426;9.206;2022-07-29T12:25:12;33.00;41.40
32394;DHT22;18853;45.426;9.206;2022-07-29T12:27:41;33.10;41.40
32394;DHT22;18853;45.426;9.206;2022-07-29T12:30:11;33.10;41.10
32394;DHT22;18853;45.426;9.206;2022-07-29T12:32:43;33.10;40.60
32394;DHT22;18853;45.426;9.206;2022-07-29T12:35:18;33.20;40.50
32394;DHT22;18853;45.426;9.206;2022-07-29T12:37:48;33.10;40.70
32394;DHT22;18853;45.426;9.206;2022-07-29T12:40:16;33.00;40.90
32394;DHT22;18853;45.426;9.206;2022-07-29T12:43:04;32.90;41.50
32394;DHT22;18853;45.426;9.206;2022-07-29T12:45:31;33.00;41.40
32394;DHT22;18853;45.426;9.206;2022-07-29T12:47:57;33.00;41.70
32394;DHT22;18853;45.426;9.206;2022-07-29T12:50:22;33.20;41.00
32394;DHT22;18853;45.426;9.206;2022-07-29T12:52:49;33.40;40.80
32394;DHT22;18853;45.426;9.206;2022-07-29T12:55:15;33.50;41.00
32394;DHT22;18853;45.426;9.206;2022-07-29T12:57:48;33.70;40.60
32394;DHT22;18853;45.426;9.206;2022-07-29T13:00:14;33.80;39.80
32394;DHT22;18853;45.426;9.206;2022-07-29T13:02:41;33.90;39.80
32394;DHT22;18853;45.426;9.206;2022-07-29T13:05:09;33.80;39.80
32394;DHT22;18853;45.426;9.206;2022-07-29T13:07:37;33.90;39.90
32394;DHT22;18853;45.426;9.206;2022-07-29T13:10:14;33.90;40.20
32394;DHT22;18853;45.426;9.206;2022-07-29T13:13:04;33.90;40.20
32394;DHT22;18853;45.426;9.206;2022-07-29T13:15:30;34.00;40.00
32394;DHT22;18853;45.426;9.206;2022-07-29T13:17:56;34.00;40.40
32394;DHT22;18853;45.426;9.206;2022-07-29T13:20:25;34.20;39.80
32394;DHT22;18853;45.426;9.206;2022-07-29T13:22:52;34.30;39.90
32394;DHT22;18853;45.426;9.206;2022-07-29T13:25:29;34.30;39.50
32394;DHT22;18853;45.426;9.206;2022-07-29T13:27:57;34.40;38.80
32394;DHT22;18853;45.426;9.206;2022-07-29T13:30:23;34.30;39.40
32394;DHT22;18853;45.426;9.206;2022-07-29T13:32:50;34.40;39.40
32394;DHT22;18853;45.426;9.206;2022-07-29T13:35:16;34.50;39.50
32394;DHT22;18853;45.426;9.206;2022-07-29T13:37:42;34.60;38.80
32394;DHT22;18853;45.426;9.206;2022-07-29T13:40:09;34.50;38.40
32394;DHT22;18853;45.426;9.206;2022-07-29T13:42:35;34.50;38.50
32394;DHT22;18853;45.426;9.206;2022-07-29T13:45:02;34.50;38.60
32394;DHT22;18853;45.426;9.206;2022-07-29T13:47:28;34.50;38.40
32394;DHT22;18853;45.426;9.206;2022-07-29T13:49:54;34.50;38.70
32394;DHT22;18853;45.426;9.206;2022-07-29T13:52:20;34.40;38.70
32394;DHT22;18853;45.426;9.206;2022-07-29T13:54:46;34.40;38.60
32394;DHT22;18853;45.426;9.206;2022-07-29T13:57:12;34.40;38.60
32394;DHT22;18853;45.426;9.206;2022-07-29T13:59:40;34.40;38.60
32394;DHT22;18853;45.426;9.206;2022-07-29T14:02:06;34.40;38.30
32394;DHT22;18853;45.426;9.206;2022-07-29T14:04:32;34.50;38.50
32394;DHT22;18853;45.426;9.206;2022-07-29T14:06:58;34.70;38.20
32394;DHT22;18853;45.426;9.206;2022-07-29T14:09:24;34.80;38.20
32394;DHT22;18853;45.426;9.206;2022-07-29T14:11:50;34.80;37.90
32394;DHT22;18853;45.426;9.206;2022-07-29T14:14:17;34.80;38.00
32394;DHT22;18853;45.426;9.206;2022-07-29T14:16:42;34.70;38.20
32394;DHT22;18853;45.426;9.206;2022-07-29T14:19:08;34.60;38.90
32394;DHT22;18853;45.426;9.206;2022-07-29T14:21:33;34.50;39.10
32394;DHT22;18853;45.426;9.206;2022-07-29T14:24:00;34.40;39.20
32394;DHT22;18853;45.426;9.206;2022-07-29T14:26:25;34.30;39.50
32394;DHT22;18853;45.426;9.206;2022-07-29T14:28:51;34.20;39.50
32394;DHT22;18853;45.426;9.206;2022-07-29T14:31:16;34.10;39.70
32394;DHT22;18853;45.426;9.206;2022-07-29T14:33:42;34.10;40.30
32394;DHT22;18853;45.426;9.206;2022-07-29T14:36:08;34.10;40.10
32394;DHT22;18853;45.426;9.206;2022-07-29T14:38:35;34.10;40.20
32394;DHT22;18853;45.426;9.206;2022-07-29T14:41:01;34.00;40.40
32394;DHT22;18853;45.426;9.206;2022-07-29T14:43:26;34.00;40.50
32394;DHT22;18853;45.426;9.206;2022-07-29T14:45:52;33.90;40.50
32394;DHT22;18853;45.426;9.206;2022-07-29T14:48:18;33.80;40.40
32394;DHT22;18853;45.426;9.206;2022-07-29T14:50:43;33.80;41.00
32394;DHT22;18853;45.426;9.206;2022-07-29T14:53:09;33.80;40.50
32394;DHT22;18853;45.426;9.206;2022-07-29T14:55:35;33.70;40.50
32394;DHT22;18853;45.426;9.206;2022-07-29T14:58:00;33.70;40.50
32394;DHT22;18853;45.426;9.206;2022-07-29T15:00:26;33.80;40.90
32394;DHT22;18853;45.426;9.206;2022-07-29T15:02:52;33.70;41.60
32394;DHT22;18853;45.426;9.206;2022-07-29T15:05:17;33.60;41.70
32394;DHT22;18853;45.426;9.206;2022-07-29T15:07:43;33.60;41.90
32394;DHT22;18853;45.426;9.206;2022-07-29T15:10:09;33.60;41.90
32394;DHT22;18853;45.426;9.206;2022-07-29T15:12:35;33.60;41.90
32394;DHT22;18853;45.426;9.206;2022-07-29T15:15:00;33.50;42.00
32394;DHT22;18853;45.426;9.206;2022-07-29T15:17:26;33.50;42.30
32394;DHT22;18853;45.426;9.206;2022-07-29T15:19:52;33.40;42.40
32394;DHT22;18853;45.426;9.206;2022-07-29T15:22:17;33.30;42.80
32394;DHT22;18853;45.426;9.206;2022-07-29T15:24:43;33.20;43.40
32394;DHT22;18853;45.426;9.206;2022-07-29T15:27:10;33.10;44.30
32394;DHT22;18853;45.426;9.206;2022-07-29T15:29:40;32.70;49.50
32394;DHT22;18853;45.426;9.206;2022-07-29T15:32:07;32.30;51.60
32394;DHT22;18853;45.426;9.206;2022-07-29T15:34:33;32.00;52.20
32394;DHT22;18853;45.426;9.206;2022-07-29T15:36:59;31.70;52.00
32394;DHT22;18853;45.426;9.206;2022-07-29T15:39:24;31.70;51.80
32394;DHT22;18853;45.426;9.206;2022-07-29T15:41:50;31.50;51.80
32394;DHT22;18853;45.426;9.206;2022-07-29T15:44:16;31.40;52.20
32394;DHT22;18853;45.426;9.206;2022-07-29T15:46:42;31.30;54.00
32394;DHT22;18853;45.426;9.206;2022-07-29T15:49:26;31.20;54.70
32394;DHT22;18853;45.426;9.206;2022-07-29T15:52:01;31.00;54.30
32394;DHT22;18853;45.426;9.206;2022-07-29T15:54:28;30.80;54.10
32394;DHT22;18853;45.426;9.206;2022-07-29T15:56:54;30.70;54.80
32394;DHT22;18853;45.426;9.206;2022-07-29T15:59:21;30.70;53.60
32394;DHT22;18853;45.426;9.206;2022-07-29T16:01:47;30.70;53.00
32394;DHT22;18853;45.426;9.206;2022-07-29T16:04:13;30.70;53.10
32394;DHT22;18853;45.426;9.206;2022-07-29T16:06:39;30.70;52.80
32394;DHT22;18853;45.426;9.206;2022-07-29T16:09:05;30.70;53.10
32394;DHT22;18853;45.426;9.206;2022-07-29T16:11:30;30.60;52.70
32394;DHT22;18853;45.426;9.206;2022-07-29T16:13:56;30.60;52.70
32394;DHT22;18853;45.426;9.206;2022-07-29T16:16:22;30.60;52.00
32394;DHT22;18853;45.426;9.206;2022-07-29T16:18:48;30.30;53.00
32394;DHT22;18853;45.426;9.206;2022-07-29T16:21:13;30.10;53.80
32394;DHT22;18853;45.426;9.206;2022-07-29T16:23:39;29.80;53.90
32394;DHT22;18853;45.426;9.206;2022-07-29T16:26:05;29.60;54.00
32394;DHT22;18853;45.426;9.206;2022-07-29T16:28:31;29.60;53.80
32394;DHT22;18853;45.426;9.206;2022-07-29T16:30:57;29.60;54.30
32394;DHT22;18853;45.426;9.206;2022-07-29T16:33:23;29.50;55.30
32394;DHT22;18853;45.426;9.206;2022-07-29T16:35:49;29.50;56.10